SWR29F EDDB-EDDH
Flight info
| Callsign | SWR29F |
|---|---|
| Flight time | 0h 34m |
| Altitude | 24000 |
| Route | SUKIP4K SUKIP M748 RARUP RARUP6A |
| Aircraft | A320/M-SDE3FGHIRWY/LB1 |
Departure
| Time | 2026-05-05 19:23 |
|---|---|
| Airport | Berlin Brandenburg Airport (EDDB) |
Arrival
| Time | 2026-05-05 19:58 |
|---|---|
| Airport | Hamburg Helmut Schmidt Airport (EDDH) |
| Time | Latitude | Longitude | Altitude | Speed | Heading |
|---|---|---|---|---|---|
| 2026-05-05 18:58 | 52.36542 | 13.50497 | 155 ft | 0 kts | 69° |
| 2026-05-05 19:13 | 52.36539 | 13.50484 | 154 ft | 3 kts | 69° |
| 2026-05-05 19:14 | 52.36532 | 13.50457 | 154 ft | 3 kts | 69° |
| 2026-05-05 19:14 | 52.36526 | 13.50431 | 154 ft | 2 kts | 69° |
| 2026-05-05 19:14 | 52.36518 | 13.50407 | 154 ft | 3 kts | 49° |
| 2026-05-05 19:14 | 52.36504 | 13.50388 | 153 ft | 3 kts | 19° |
| 2026-05-05 19:15 | 52.36492 | 13.50382 | 153 ft | 3 kts | 2° |
| 2026-05-05 19:15 | 52.36476 | 13.50382 | 153 ft | 0 kts | 352° |
| 2026-05-05 19:15 | 52.36469 | 13.50384 | 153 ft | 0 kts | 345° |
| 2026-05-05 19:18 | 52.36472 | 13.50374 | 152 ft | 4 kts | 301° |
| 2026-05-05 19:18 | 52.36495 | 13.50308 | 151 ft | 8 kts | 301° |
| 2026-05-05 19:18 | 52.36539 | 13.50258 | 151 ft | 10 kts | 339° |
| 2026-05-05 19:19 | 52.36593 | 13.50225 | 151 ft | 8 kts | 340° |
| 2026-05-05 19:19 | 52.36675 | 13.50174 | 151 ft | 15 kts | 336° |
| 2026-05-05 19:19 | 52.36731 | 13.50079 | 150 ft | 3 kts | 306° |
| 2026-05-05 19:19 | 52.36735 | 13.50071 | 150 ft | 0 kts | 311° |
| 2026-05-05 19:20 | 52.36739 | 13.50066 | 150 ft | 2 kts | 314° |
| 2026-05-05 19:20 | 52.36757 | 13.50043 | 149 ft | 10 kts | 321° |
| 2026-05-05 19:21 | 52.36767 | 13.49928 | 148 ft | 10 kts | 254° |
| 2026-05-05 19:21 | 52.36743 | 13.49800 | 148 ft | 12 kts | 251° |
| 2026-05-05 19:21 | 52.36706 | 13.49638 | 148 ft | 15 kts | 251° |
| 2026-05-05 19:21 | 52.36722 | 13.49486 | 147 ft | 15 kts | 327° |
| 2026-05-05 19:22 | 52.36818 | 13.49436 | 150 ft | 14 kts | 2° |
| 2026-05-05 19:22 | 52.36906 | 13.49521 | 155 ft | 19 kts | 37° |
| 2026-05-05 19:22 | 52.37016 | 13.49678 | 157 ft | 22 kts | 44° |
| 2026-05-05 19:22 | 52.37097 | 13.49882 | 159 ft | 24 kts | 70° |
| 2026-05-05 19:23 | 52.37224 | 13.50413 | 157 ft | 86 kts | 69° |
| 2026-05-05 19:23 | 52.37521 | 13.51664 | 160 ft | 147 kts | 69° |
| 2026-05-05 19:23 | 52.37902 | 13.53330 | 639 ft | 155 kts | 69° |
| 2026-05-05 19:23 | 52.38268 | 13.54983 | 1366 ft | 153 kts | 68° |
| 2026-05-05 19:24 | 52.38648 | 13.56648 | 1985 ft | 161 kts | 67° |
| 2026-05-05 19:24 | 52.38930 | 13.57827 | 2281 ft | 173 kts | 66° |
| 2026-05-05 19:24 | 52.39408 | 13.59741 | 2773 ft | 190 kts | 65° |
| 2026-05-05 19:24 | 52.39977 | 13.61816 | 3177 ft | 212 kts | 58° |
| 2026-05-05 19:25 | 52.40121 | 13.62211 | 3250 ft | 236 kts | 55° |
| 2026-05-05 19:26 | 52.49459 | 13.68462 | 5007 ft | 264 kts | 17° |
| 2026-05-05 19:26 | 52.51289 | 13.68813 | 5013 ft | 263 kts | 357° |
| 2026-05-05 19:26 | 52.53090 | 13.68110 | 5493 ft | 271 kts | 338° |
| 2026-05-05 19:27 | 52.54691 | 13.66439 | 6451 ft | 277 kts | 317° |
| 2026-05-05 19:27 | 52.55815 | 13.63844 | 7315 ft | 283 kts | 294° |
| 2026-05-05 19:27 | 52.56595 | 13.60848 | 8225 ft | 286 kts | 292° |
| 2026-05-05 19:27 | 52.57363 | 13.57800 | 9152 ft | 289 kts | 292° |
| 2026-05-05 19:28 | 52.58118 | 13.54765 | 10026 ft | 293 kts | 291° |
| 2026-05-05 19:28 | 52.58921 | 13.51528 | 10373 ft | 317 kts | 291° |
| 2026-05-05 19:28 | 52.59781 | 13.48052 | 10637 ft | 340 kts | 291° |
| 2026-05-05 19:28 | 52.60704 | 13.44345 | 11092 ft | 355 kts | 291° |
| 2026-05-05 19:29 | 52.61656 | 13.40531 | 11827 ft | 359 kts | 291° |
| 2026-05-05 19:29 | 52.62596 | 13.36761 | 12578 ft | 363 kts | 291° |
| 2026-05-05 19:29 | 52.63549 | 13.32933 | 13334 ft | 365 kts | 290° |
| 2026-05-05 19:29 | 52.64533 | 13.28978 | 14074 ft | 368 kts | 290° |
| 2026-05-05 19:30 | 52.65494 | 13.25099 | 14789 ft | 371 kts | 290° |
| 2026-05-05 19:30 | 52.66460 | 13.21184 | 15459 ft | 373 kts | 290° |
| 2026-05-05 19:30 | 52.67447 | 13.17167 | 15752 ft | 375 kts | 290° |
| 2026-05-05 19:30 | 52.68422 | 13.13198 | 15835 ft | 374 kts | 290° |
| 2026-05-05 19:31 | 52.69390 | 13.09252 | 15850 ft | 374 kts | 290° |
| 2026-05-05 19:31 | 52.70371 | 13.05263 | 16053 ft | 377 kts | 290° |
| 2026-05-05 19:31 | 52.71357 | 13.01249 | 16765 ft | 379 kts | 290° |
| 2026-05-05 19:31 | 52.72359 | 12.97155 | 17442 ft | 382 kts | 290° |
| 2026-05-05 19:32 | 52.73353 | 12.93088 | 18078 ft | 384 kts | 290° |
| 2026-05-05 19:32 | 52.74364 | 12.88948 | 18704 ft | 387 kts | 289° |
| 2026-05-05 19:32 | 52.75355 | 12.84876 | 19291 ft | 390 kts | 289° |
| 2026-05-05 19:32 | 52.76370 | 12.80698 | 19877 ft | 393 kts | 289° |
| 2026-05-05 19:33 | 52.77392 | 12.76480 | 20423 ft | 396 kts | 289° |
| 2026-05-05 19:33 | 52.78427 | 12.72207 | 20962 ft | 399 kts | 289° |
| 2026-05-05 19:33 | 52.79448 | 12.67985 | 21465 ft | 402 kts | 289° |
| 2026-05-05 19:33 | 52.80492 | 12.63657 | 21959 ft | 405 kts | 289° |
| 2026-05-05 19:34 | 52.81530 | 12.59343 | 22424 ft | 407 kts | 289° |
| 2026-05-05 19:34 | 52.82585 | 12.54941 | 22870 ft | 410 kts | 288° |
| 2026-05-05 19:34 | 52.83645 | 12.50516 | 23296 ft | 413 kts | 288° |
| 2026-05-05 19:35 | 52.85760 | 12.41665 | 23841 ft | 418 kts | 288° |
| 2026-05-05 19:35 | 52.86826 | 12.37167 | 23872 ft | 429 kts | 288° |
| 2026-05-05 19:35 | 52.87940 | 12.32463 | 23869 ft | 434 kts | 288° |
| 2026-05-05 19:35 | 52.89041 | 12.27823 | 23869 ft | 435 kts | 288° |
| 2026-05-05 19:36 | 52.90139 | 12.23201 | 23869 ft | 436 kts | 288° |
| 2026-05-05 19:36 | 52.91246 | 12.18525 | 23880 ft | 436 kts | 288° |
| 2026-05-05 19:36 | 52.92350 | 12.13845 | 23877 ft | 435 kts | 288° |
| 2026-05-05 19:36 | 52.93452 | 12.09160 | 23878 ft | 435 kts | 288° |
| 2026-05-05 19:37 | 52.94555 | 12.04471 | 23880 ft | 435 kts | 288° |
| 2026-05-05 19:37 | 52.95654 | 11.99782 | 23888 ft | 435 kts | 288° |
| 2026-05-05 19:37 | 52.96745 | 11.95105 | 23886 ft | 435 kts | 288° |
| 2026-05-05 19:37 | 52.97838 | 11.90416 | 23880 ft | 435 kts | 288° |
| 2026-05-05 19:38 | 52.98924 | 11.85753 | 23876 ft | 435 kts | 288° |
| 2026-05-05 19:38 | 52.99998 | 11.81125 | 23876 ft | 435 kts | 288° |
| 2026-05-05 19:38 | 53.01086 | 11.76419 | 23876 ft | 435 kts | 288° |
| 2026-05-05 19:38 | 53.02171 | 11.71723 | 23876 ft | 435 kts | 288° |
| 2026-05-05 19:39 | 53.03255 | 11.67010 | 23878 ft | 435 kts | 288° |
| 2026-05-05 19:39 | 53.04325 | 11.62337 | 23879 ft | 435 kts | 288° |
| 2026-05-05 19:39 | 53.05403 | 11.57633 | 23881 ft | 435 kts | 288° |
| 2026-05-05 19:39 | 53.06480 | 11.52926 | 23882 ft | 435 kts | 288° |
| 2026-05-05 19:40 | 53.07553 | 11.48222 | 23883 ft | 435 kts | 288° |
| 2026-05-05 19:40 | 53.08633 | 11.43478 | 23883 ft | 434 kts | 288° |
| 2026-05-05 19:40 | 53.09688 | 11.38844 | 23883 ft | 434 kts | 288° |
| 2026-05-05 19:40 | 53.10899 | 11.34204 | 23878 ft | 438 kts | 296° |
| 2026-05-05 19:41 | 53.12750 | 11.30098 | 23885 ft | 448 kts | 311° |
| 2026-05-05 19:41 | 53.15214 | 11.26763 | 23901 ft | 462 kts | 320° |
| 2026-05-05 19:41 | 53.17724 | 11.23709 | 23897 ft | 470 kts | 320° |
| 2026-05-05 19:41 | 53.20495 | 11.20400 | 23743 ft | 474 kts | 321° |
| 2026-05-05 19:42 | 53.23186 | 11.17218 | 23200 ft | 471 kts | 321° |
| 2026-05-05 19:42 | 53.25853 | 11.14075 | 22744 ft | 468 kts | 321° |
| 2026-05-05 19:42 | 53.28486 | 11.10962 | 22299 ft | 465 kts | 321° |
| 2026-05-05 19:42 | 53.30934 | 11.07589 | 21791 ft | 453 kts | 310° |
| 2026-05-05 19:43 | 53.32793 | 11.03423 | 21219 ft | 443 kts | 296° |
| 2026-05-05 19:43 | 53.33951 | 10.98684 | 20640 ft | 435 kts | 283° |
| 2026-05-05 19:43 | 53.34731 | 10.93817 | 20065 ft | 432 kts | 283° |
| 2026-05-05 19:43 | 53.35504 | 10.88964 | 19488 ft | 429 kts | 283° |
| 2026-05-05 19:44 | 53.36267 | 10.84152 | 18912 ft | 426 kts | 283° |
| 2026-05-05 19:44 | 53.37026 | 10.79356 | 18334 ft | 422 kts | 283° |
| 2026-05-05 19:44 | 53.37744 | 10.74813 | 17781 ft | 419 kts | 283° |
| 2026-05-05 19:44 | 53.38521 | 10.69896 | 17178 ft | 416 kts | 283° |
| 2026-05-05 19:45 | 53.39258 | 10.65226 | 16603 ft | 413 kts | 283° |
| 2026-05-05 19:45 | 53.39987 | 10.60588 | 16025 ft | 410 kts | 283° |
| 2026-05-05 19:45 | 53.40702 | 10.56036 | 15454 ft | 407 kts | 283° |
| 2026-05-05 19:45 | 53.41434 | 10.51471 | 14877 ft | 404 kts | 283° |
| 2026-05-05 19:46 | 53.42147 | 10.46927 | 14304 ft | 401 kts | 283° |
| 2026-05-05 19:46 | 53.42838 | 10.42400 | 13720 ft | 398 kts | 283° |
| 2026-05-05 19:46 | 53.43517 | 10.37913 | 13150 ft | 396 kts | 283° |
| 2026-05-05 19:46 | 53.44184 | 10.33515 | 12578 ft | 393 kts | 283° |
| 2026-05-05 19:47 | 53.44589 | 10.29002 | 11977 ft | 385 kts | 270° |
| 2026-05-05 19:47 | 53.44229 | 10.24612 | 11362 ft | 377 kts | 255° |
| 2026-05-05 19:47 | 53.43504 | 10.20388 | 10866 ft | 377 kts | 255° |
| 2026-05-05 19:47 | 53.42775 | 10.16150 | 10361 ft | 377 kts | 255° |
| 2026-05-05 19:48 | 53.42063 | 10.12021 | 9842 ft | 356 kts | 255° |
| 2026-05-05 19:48 | 53.41393 | 10.08154 | 9346 ft | 336 kts | 255° |
| 2026-05-05 19:48 | 53.40776 | 10.04596 | 8863 ft | 320 kts | 255° |
| 2026-05-05 19:48 | 53.40148 | 10.00982 | 8347 ft | 306 kts | 254° |
| 2026-05-05 19:49 | 53.39565 | 9.97630 | 7845 ft | 294 kts | 253° |
| 2026-05-05 19:49 | 53.39239 | 9.95474 | 7518 ft | 287 kts | 261° |
| 2026-05-05 19:49 | 53.39423 | 9.91150 | 6854 ft | 277 kts | 282° |
| 2026-05-05 19:49 | 53.39847 | 9.88034 | 6333 ft | 271 kts | 284° |
| 2026-05-05 19:50 | 53.40267 | 9.84979 | 5805 ft | 265 kts | 285° |
| 2026-05-05 19:50 | 53.40679 | 9.81992 | 5278 ft | 260 kts | 285° |
| 2026-05-05 19:50 | 53.41080 | 9.79053 | 4752 ft | 256 kts | 285° |
| 2026-05-05 19:50 | 53.41471 | 9.76196 | 4227 ft | 251 kts | 285° |
| 2026-05-05 19:51 | 53.41899 | 9.73378 | 3695 ft | 244 kts | 295° |
| 2026-05-05 19:51 | 53.42790 | 9.71052 | 3181 ft | 232 kts | 321° |
| 2026-05-05 19:51 | 53.44033 | 9.69634 | 3030 ft | 208 kts | 340° |
| 2026-05-05 19:51 | 53.45342 | 9.68993 | 3050 ft | 188 kts | 356° |
| 2026-05-05 19:52 | 53.46610 | 9.68980 | 3036 ft | 179 kts | 10° |
| 2026-05-05 19:52 | 53.47802 | 9.69525 | 3024 ft | 176 kts | 25° |
| 2026-05-05 19:52 | 53.48844 | 9.70550 | 3023 ft | 169 kts | 38° |
| 2026-05-05 19:52 | 53.49658 | 9.71920 | 3025 ft | 164 kts | 50° |
| 2026-05-05 19:53 | 53.50344 | 9.73450 | 3028 ft | 163 kts | 51° |
| 2026-05-05 19:53 | 53.51065 | 9.74919 | 3006 ft | 162 kts | 46° |
| 2026-05-05 19:53 | 53.51824 | 9.76283 | 3017 ft | 162 kts | 46° |
| 2026-05-05 19:53 | 53.52572 | 9.77696 | 2931 ft | 162 kts | 48° |
| 2026-05-05 19:54 | 53.53306 | 9.79121 | 2804 ft | 157 kts | 50° |
| 2026-05-05 19:54 | 53.53952 | 9.80529 | 2644 ft | 148 kts | 52° |
| 2026-05-05 19:54 | 53.54568 | 9.81860 | 2466 ft | 141 kts | 51° |
| 2026-05-05 19:54 | 53.55172 | 9.83121 | 2279 ft | 135 kts | 49° |
| 2026-05-05 19:55 | 53.55778 | 9.84272 | 2222 ft | 130 kts | 49° |
| 2026-05-05 19:55 | 53.56366 | 9.85437 | 2098 ft | 130 kts | 50° |
| 2026-05-05 19:55 | 53.56942 | 9.86606 | 1947 ft | 129 kts | 51° |
| 2026-05-05 19:55 | 53.57511 | 9.87748 | 1763 ft | 129 kts | 49° |
| 2026-05-05 19:56 | 53.58114 | 9.88875 | 1523 ft | 129 kts | 50° |
| 2026-05-05 19:56 | 53.58689 | 9.90026 | 1256 ft | 128 kts | 52° |
| 2026-05-05 19:56 | 53.59247 | 9.91218 | 943 ft | 129 kts | 51° |
| 2026-05-05 19:56 | 53.59817 | 9.92386 | 741 ft | 130 kts | 50° |
| 2026-05-05 19:57 | 53.60411 | 9.93544 | 572 ft | 131 kts | 48° |
| 2026-05-05 19:57 | 53.60806 | 9.94315 | 451 ft | 131 kts | 50° |
| 2026-05-05 19:57 | 53.61594 | 9.95912 | 212 ft | 131 kts | 51° |
| 2026-05-05 19:57 | 53.62179 | 9.97094 | 49 ft | 129 kts | 51° |
| 2026-05-05 19:58 | 53.62677 | 9.98093 | 42 ft | 97 kts | 51° |
| 2026-05-05 19:58 | 53.63055 | 9.98860 | 46 ft | 73 kts | 50° |
| 2026-05-05 19:58 | 53.63267 | 9.99308 | 47 ft | 27 kts | 62° |
| 2026-05-05 19:58 | 53.63285 | 9.99572 | 48 ft | 10 kts | 98° |
| 2026-05-05 19:59 | 53.63278 | 9.99648 | 48 ft | 5 kts | 99° |
| 2026-05-05 19:59 | 53.63274 | 9.99687 | 48 ft | 6 kts | 98° |
| 2026-05-05 19:59 | 53.63307 | 9.99815 | 47 ft | 15 kts | 49° |
| 2026-05-05 19:59 | 53.63373 | 9.99955 | 46 ft | 16 kts | 52° |
| 2026-05-05 20:00 | 53.63437 | 10.00086 | 47 ft | 12 kts | 51° |
| 2026-05-05 20:00 | 53.63439 | 10.00202 | 45 ft | 10 kts | 123° |
| 2026-05-05 20:00 | 53.63386 | 10.00226 | 48 ft | 8 kts | 178° |
| 2026-05-05 20:00 | 53.63339 | 10.00232 | 48 ft | 3 kts | 168° |
| 2026-05-05 20:01 | 53.63328 | 10.00261 | 48 ft | 3 kts | 95° |
| 2026-05-05 20:01 | 53.63329 | 10.00292 | 48 ft | 2 kts | 87° |
| 2026-05-05 20:01 | 53.63329 | 10.00316 | 48 ft | 2 kts | 87° |
| 2026-05-05 20:01 | 53.63330 | 10.00334 | 48 ft | 1 kts | 87° |
| 2026-05-05 20:02 | 53.63330 | 10.00346 | 48 ft | 1 kts | 87° |
| 2026-05-05 20:02 | 53.63330 | 10.00347 | 48 ft | 0 kts | 87° |